sensor_id;sensor_type;location;lat;lon;timestamp;temperature;humidity
12315;DHT22;23886;46.614;14.276;2022-08-05T00:02:06;20.10;99.90
12315;DHT22;23886;46.614;14.276;2022-08-05T00:04:35;20.10;99.90
12315;DHT22;23886;46.614;14.276;2022-08-05T00:07:02;20.10;99.90
12315;DHT22;23886;46.614;14.276;2022-08-05T00:09:29;20.00;99.90
12315;DHT22;23886;46.614;14.276;2022-08-05T00:11:55;20.00;99.90
12315;DHT22;23886;46.614;14.276;2022-08-05T00:14:23;19.90;99.90
12315;DHT22;23886;46.614;14.276;2022-08-05T00:16:50;19.90;99.90
12315;DHT22;23886;46.614;14.276;2022-08-05T00:19:17;19.90;99.90
12315;DHT22;23886;46.614;14.276;2022-08-05T00:21:45;19.90;99.90
12315;DHT22;23886;46.614;14.276;2022-08-05T00:24:12;19.90;99.90
12315;DHT22;23886;46.614;14.276;2022-08-05T00:26:39;19.80;99.90
12315;DHT22;23886;46.614;14.276;2022-08-05T00:29:06;19.70;99.90
12315;DHT22;23886;46.614;14.276;2022-08-05T00:31:33;19.70;99.90
12315;DHT22;23886;46.614;14.276;2022-08-05T00:34:00;19.70;99.90
12315;DHT22;23886;46.614;14.276;2022-08-05T00:36:27;19.50;99.90
12315;DHT22;23886;46.614;14.276;2022-08-05T00:38:55;19.50;99.90
12315;DHT22;23886;46.614;14.276;2022-08-05T00:41:29;19.40;99.90
12315;DHT22;23886;46.614;14.276;2022-08-05T00:43:56;19.40;99.90
12315;DHT22;23886;46.614;14.276;2022-08-05T00:46:24;19.40;99.90
12315;DHT22;23886;46.614;14.276;2022-08-05T00:48:51;19.30;99.90
12315;DHT22;23886;46.614;14.276;2022-08-05T00:51:19;19.30;99.90
12315;DHT22;23886;46.614;14.276;2022-08-05T00:53:46;19.30;99.90
12315;DHT22;23886;46.614;14.276;2022-08-05T00:56:16;19.40;99.90
12315;DHT22;23886;46.614;14.276;2022-08-05T00:58:43;19.50;99.90
12315;DHT22;23886;46.614;14.276;2022-08-05T01:01:10;19.50;99.90
12315;DHT22;23886;46.614;14.276;2022-08-05T01:03:37;19.50;99.90
12315;DHT22;23886;46.614;14.276;2022-08-05T01:06:04;19.40;99.90
12315;DHT22;23886;46.614;14.276;2022-08-05T01:08:32;19.40;99.90
12315;DHT22;23886;46.614;14.276;2022-08-05T01:11:03;19.30;99.90
12315;DHT22;23886;46.614;14.276;2022-08-05T01:13:39;19.30;99.90
12315;DHT22;23886;46.614;14.276;2022-08-05T01:16:13;19.30;99.90
12315;DHT22;23886;46.614;14.276;2022-08-05T01:18:42;19.30;99.90
12315;DHT22;23886;46.614;14.276;2022-08-05T01:21:20;19.30;99.90
12315;DHT22;23886;46.614;14.276;2022-08-05T01:24:04;19.30;99.90
12315;DHT22;23886;46.614;14.276;2022-08-05T01:26:47;19.30;99.90
12315;DHT22;23886;46.614;14.276;2022-08-05T01:29:24;19.00;99.90
12315;DHT22;23886;46.614;14.276;2022-08-05T01:31:54;19.00;99.90
12315;DHT22;23886;46.614;14.276;2022-08-05T01:34:26;19.10;99.90
12315;DHT22;23886;46.614;14.276;2022-08-05T01:36:59;19.00;99.90
12315;DHT22;23886;46.614;14.276;2022-08-05T01:39:30;19.10;99.90
12315;DHT22;23886;46.614;14.276;2022-08-05T01:41:58;19.00;99.90
12315;DHT22;23886;46.614;14.276;2022-08-05T01:44:29;19.00;99.90
12315;DHT22;23886;46.614;14.276;2022-08-05T01:46:58;19.00;99.90
12315;DHT22;23886;46.614;14.276;2022-08-05T01:49:26;18.90;99.90
12315;DHT22;23886;46.614;14.276;2022-08-05T01:51:56;18.90;99.90
12315;DHT22;23886;46.614;14.276;2022-08-05T01:54:27;18.90;99.90
12315;DHT22;23886;46.614;14.276;2022-08-05T01:56:56;18.90;99.90
12315;DHT22;23886;46.614;14.276;2022-08-05T01:59:26;18.90;99.90
12315;DHT22;23886;46.614;14.276;2022-08-05T02:01:55;18.90;99.90
12315;DHT22;23886;46.614;14.276;2022-08-05T02:04:25;18.80;99.90
12315;DHT22;23886;46.614;14.276;2022-08-05T02:06:54;18.80;99.90
12315;DHT22;23886;46.614;14.276;2022-08-05T02:09:21;18.80;99.90
12315;DHT22;23886;46.614;14.276;2022-08-05T02:11:53;18.70;99.90
12315;DHT22;23886;46.614;14.276;2022-08-05T02:14:27;18.80;99.90
12315;DHT22;23886;46.614;14.276;2022-08-05T02:17:02;18.70;99.90
12315;DHT22;23886;46.614;14.276;2022-08-05T02:19:32;18.70;99.90
12315;DHT22;23886;46.614;14.276;2022-08-05T02:22:02;18.60;99.90
12315;DHT22;23886;46.614;14.276;2022-08-05T02:24:34;18.50;99.90
12315;DHT22;23886;46.614;14.276;2022-08-05T02:27:05;18.40;99.90
12315;DHT22;23886;46.614;14.276;2022-08-05T02:29:34;18.40;99.90
12315;DHT22;23886;46.614;14.276;2022-08-05T02:32:05;18.40;99.90
12315;DHT22;23886;46.614;14.276;2022-08-05T02:34:36;18.40;99.90
12315;DHT22;23886;46.614;14.276;2022-08-05T02:37:07;18.40;99.90
12315;DHT22;23886;46.614;14.276;2022-08-05T02:39:36;18.30;99.90
12315;DHT22;23886;46.614;14.276;2022-08-05T02:42:05;18.30;99.90
12315;DHT22;23886;46.614;14.276;2022-08-05T02:44:34;18.30;99.90
12315;DHT22;23886;46.614;14.276;2022-08-05T02:47:04;18.30;99.90
12315;DHT22;23886;46.614;14.276;2022-08-05T02:49:35;18.30;99.90
12315;DHT22;23886;46.614;14.276;2022-08-05T02:52:04;18.30;99.90
12315;DHT22;23886;46.614;14.276;2022-08-05T02:54:32;18.30;99.90
12315;DHT22;23886;46.614;14.276;2022-08-05T02:57:00;18.30;99.90
12315;DHT22;23886;46.614;14.276;2022-08-05T02:59:28;18.20;99.90
12315;DHT22;23886;46.614;14.276;2022-08-05T03:01:57;18.20;99.90
12315;DHT22;23886;46.614;14.276;2022-08-05T03:04:27;18.20;99.90
12315;DHT22;23886;46.614;14.276;2022-08-05T03:06:54;18.30;99.90
12315;DHT22;23886;46.614;14.276;2022-08-05T03:09:22;18.30;99.90
12315;DHT22;23886;46.614;14.276;2022-08-05T03:11:49;18.20;99.90
12315;DHT22;23886;46.614;14.276;2022-08-05T03:14:16;18.20;99.90
12315;DHT22;23886;46.614;14.276;2022-08-05T03:16:43;18.10;99.90
12315;DHT22;23886;46.614;14.276;2022-08-05T03:19:10;18.10;99.90
12315;DHT22;23886;46.614;14.276;2022-08-05T03:21:39;18.00;99.90
12315;DHT22;23886;46.614;14.276;2022-08-05T03:24:06;18.00;99.90
12315;DHT22;23886;46.614;14.276;2022-08-05T03:26:34;18.10;99.90
12315;DHT22;23886;46.614;14.276;2022-08-05T03:29:01;18.00;99.90
12315;DHT22;23886;46.614;14.276;2022-08-05T03:31:29;18.00;99.90
12315;DHT22;23886;46.614;14.276;2022-08-05T03:33:56;17.90;99.90
12315;DHT22;23886;46.614;14.276;2022-08-05T03:36:24;17.90;99.90
12315;DHT22;23886;46.614;14.276;2022-08-05T03:38:53;17.90;99.90
12315;DHT22;23886;46.614;14.276;2022-08-05T03:41:20;17.90;99.90
12315;DHT22;23886;46.614;14.276;2022-08-05T03:43:47;18.00;99.90
12315;DHT22;23886;46.614;14.276;2022-08-05T03:46:14;17.90;99.90
12315;DHT22;23886;46.614;14.276;2022-08-05T03:48:41;17.90;99.90
12315;DHT22;23886;46.614;14.276;2022-08-05T03:51:11;17.90;99.90
12315;DHT22;23886;46.614;14.276;2022-08-05T03:53:42;17.90;99.90
12315;DHT22;23886;46.614;14.276;2022-08-05T03:56:27;18.00;99.90
12315;DHT22;23886;46.614;14.276;2022-08-05T03:58:59;17.90;99.90
12315;DHT22;23886;46.614;14.276;2022-08-05T04:01:28;18.00;99.90
12315;DHT22;23886;46.614;14.276;2022-08-05T04:03:57;17.90;99.90
12315;DHT22;23886;46.614;14.276;2022-08-05T04:06:25;17.90;99.90
12315;DHT22;23886;46.614;14.276;2022-08-05T04:08:53;17.90;99.90
12315;DHT22;23886;46.614;14.276;2022-08-05T04:11:22;17.90;99.90
12315;DHT22;23886;46.614;14.276;2022-08-05T04:13:50;17.80;99.90
12315;DHT22;23886;46.614;14.276;2022-08-05T04:16:17;17.90;99.90
12315;DHT22;23886;46.614;14.276;2022-08-05T04:18:45;17.90;99.90
12315;DHT22;23886;46.614;14.276;2022-08-05T04:21:12;17.90;99.90
12315;DHT22;23886;46.614;14.276;2022-08-05T04:23:39;18.00;99.90
12315;DHT22;23886;46.614;14.276;2022-08-05T04:26:06;18.00;99.90
12315;DHT22;23886;46.614;14.276;2022-08-05T04:28:34;18.10;99.90
12315;DHT22;23886;46.614;14.276;2022-08-05T04:31:02;18.20;99.90
12315;DHT22;23886;46.614;14.276;2022-08-05T04:33:29;18.20;99.90
12315;DHT22;23886;46.614;14.276;2022-08-05T04:35:56;18.20;99.90
12315;DHT22;23886;46.614;14.276;2022-08-05T04:38:23;18.30;99.90
12315;DHT22;23886;46.614;14.276;2022-08-05T04:40:50;18.30;99.90
12315;DHT22;23886;46.614;14.276;2022-08-05T04:43:17;18.40;99.90
12315;DHT22;23886;46.614;14.276;2022-08-05T04:45:46;18.40;99.90
12315;DHT22;23886;46.614;14.276;2022-08-05T04:48:13;18.50;99.90
12315;DHT22;23886;46.614;14.276;2022-08-05T04:50:42;18.50;99.90
12315;DHT22;23886;46.614;14.276;2022-08-05T04:53:10;18.60;99.90
12315;DHT22;23886;46.614;14.276;2022-08-05T04:55:37;18.60;99.90
12315;DHT22;23886;46.614;14.276;2022-08-05T04:58:05;18.70;99.90
12315;DHT22;23886;46.614;14.276;2022-08-05T05:00:32;18.70;99.90
12315;DHT22;23886;46.614;14.276;2022-08-05T05:03:01;18.90;99.90
12315;DHT22;23886;46.614;14.276;2022-08-05T05:05:29;19.00;99.90
12315;DHT22;23886;46.614;14.276;2022-08-05T05:07:59;18.90;99.90
12315;DHT22;23886;46.614;14.276;2022-08-05T05:10:26;19.10;99.90
12315;DHT22;23886;46.614;14.276;2022-08-05T05:12:54;19.10;99.90
12315;DHT22;23886;46.614;14.276;2022-08-05T05:15:21;19.30;99.90
12315;DHT22;23886;46.614;14.276;2022-08-05T05:17:48;19.30;99.90
12315;DHT22;23886;46.614;14.276;2022-08-05T05:20:16;19.40;99.90
12315;DHT22;23886;46.614;14.276;2022-08-05T05:22:43;19.50;99.90
12315;DHT22;23886;46.614;14.276;2022-08-05T05:25:10;19.60;99.90
12315;DHT22;23886;46.614;14.276;2022-08-05T05:27:38;19.70;99.90
12315;DHT22;23886;46.614;14.276;2022-08-05T05:30:06;19.80;99.90
12315;DHT22;23886;46.614;14.276;2022-08-05T05:32:33;19.80;99.90
12315;DHT22;23886;46.614;14.276;2022-08-05T05:35:00;20.00;99.90
12315;DHT22;23886;46.614;14.276;2022-08-05T05:37:28;20.00;99.90
12315;DHT22;23886;46.614;14.276;2022-08-05T05:39:55;20.10;99.90
12315;DHT22;23886;46.614;14.276;2022-08-05T05:42:22;20.20;99.90
12315;DHT22;23886;46.614;14.276;2022-08-05T05:44:49;20.40;99.90
12315;DHT22;23886;46.614;14.276;2022-08-05T05:47:16;20.50;99.90
12315;DHT22;23886;46.614;14.276;2022-08-05T05:49:43;20.50;99.90
12315;DHT22;23886;46.614;14.276;2022-08-05T05:52:10;20.60;99.90
12315;DHT22;23886;46.614;14.276;2022-08-05T05:54:38;20.60;99.90
12315;DHT22;23886;46.614;14.276;2022-08-05T05:57:05;20.70;99.90
12315;DHT22;23886;46.614;14.276;2022-08-05T05:59:32;20.80;99.90
12315;DHT22;23886;46.614;14.276;2022-08-05T06:01:59;20.90;99.90
12315;DHT22;23886;46.614;14.276;2022-08-05T06:04:26;21.00;99.90
12315;DHT22;23886;46.614;14.276;2022-08-05T06:06:53;21.10;99.90
12315;DHT22;23886;46.614;14.276;2022-08-05T06:09:20;21.10;99.90
12315;DHT22;23886;46.614;14.276;2022-08-05T06:11:48;21.30;99.90
12315;DHT22;23886;46.614;14.276;2022-08-05T06:14:15;21.40;99.90
12315;DHT22;23886;46.614;14.276;2022-08-05T06:16:42;21.50;99.90
12315;DHT22;23886;46.614;14.276;2022-08-05T06:19:09;21.50;99.90
12315;DHT22;23886;46.614;14.276;2022-08-05T06:21:36;21.60;99.90
12315;DHT22;23886;46.614;14.276;2022-08-05T06:24:04;21.70;99.90
12315;DHT22;23886;46.614;14.276;2022-08-05T06:26:31;21.80;99.90
12315;DHT22;23886;46.614;14.276;2022-08-05T06:29:00;21.90;99.90
12315;DHT22;23886;46.614;14.276;2022-08-05T06:31:27;22.00;99.90
12315;DHT22;23886;46.614;14.276;2022-08-05T06:33:54;22.10;99.90
12315;DHT22;23886;46.614;14.276;2022-08-05T06:36:21;22.20;99.90
12315;DHT22;23886;46.614;14.276;2022-08-05T06:38:49;22.30;99.90
12315;DHT22;23886;46.614;14.276;2022-08-05T06:41:18;22.40;99.90
12315;DHT22;23886;46.614;14.276;2022-08-05T06:43:45;22.40;99.90
12315;DHT22;23886;46.614;14.276;2022-08-05T06:46:13;22.50;99.90
12315;DHT22;23886;46.614;14.276;2022-08-05T06:48:40;22.60;99.90
12315;DHT22;23886;46.614;14.276;2022-08-05T06:51:07;22.70;99.90
12315;DHT22;23886;46.614;14.276;2022-08-05T06:53:34;22.80;99.90
12315;DHT22;23886;46.614;14.276;2022-08-05T06:56:01;23.00;99.90
12315;DHT22;23886;46.614;14.276;2022-08-05T06:58:29;23.00;99.90
12315;DHT22;23886;46.614;14.276;2022-08-05T07:00:57;23.10;99.90
12315;DHT22;23886;46.614;14.276;2022-08-05T07:03:26;23.30;99.90
12315;DHT22;23886;46.614;14.276;2022-08-05T07:05:54;23.30;99.90
12315;DHT22;23886;46.614;14.276;2022-08-05T07:08:21;23.40;99.90
12315;DHT22;23886;46.614;14.276;2022-08-05T07:10:49;23.50;99.90
12315;DHT22;23886;46.614;14.276;2022-08-05T07:13:16;23.60;99.90
12315;DHT22;23886;46.614;14.276;2022-08-05T07:16:01;23.60;99.90
12315;DHT22;23886;46.614;14.276;2022-08-05T07:18:47;23.70;99.90
12315;DHT22;23886;46.614;14.276;2022-08-05T07:21:14;23.80;99.90
12315;DHT22;23886;46.614;14.276;2022-08-05T07:23:41;24.00;99.90
12315;DHT22;23886;46.614;14.276;2022-08-05T07:26:08;24.10;99.90
12315;DHT22;23886;46.614;14.276;2022-08-05T07:28:35;24.10;99.90
12315;DHT22;23886;46.614;14.276;2022-08-05T07:31:02;24.20;99.90
12315;DHT22;23886;46.614;14.276;2022-08-05T07:33:29;24.30;99.90
12315;DHT22;23886;46.614;14.276;2022-08-05T07:35:58;24.40;99.90
12315;DHT22;23886;46.614;14.276;2022-08-05T07:38:25;24.60;99.90
12315;DHT22;23886;46.614;14.276;2022-08-05T07:40:52;24.70;99.90
12315;DHT22;23886;46.614;14.276;2022-08-05T07:43:19;24.70;99.90
12315;DHT22;23886;46.614;14.276;2022-08-05T07:45:46;24.80;99.90
12315;DHT22;23886;46.614;14.276;2022-08-05T07:48:13;24.90;99.90
12315;DHT22;23886;46.614;14.276;2022-08-05T07:50:40;25.00;99.90
12315;DHT22;23886;46.614;14.276;2022-08-05T07:53:08;25.10;99.90
12315;DHT22;23886;46.614;14.276;2022-08-05T07:55:35;25.10;99.90
12315;DHT22;23886;46.614;14.276;2022-08-05T07:58:02;25.20;99.90
12315;DHT22;23886;46.614;14.276;2022-08-05T08:00:29;25.30;99.90
12315;DHT22;23886;46.614;14.276;2022-08-05T08:02:56;25.40;99.90
12315;DHT22;23886;46.614;14.276;2022-08-05T08:05:24;25.40;99.90
12315;DHT22;23886;46.614;14.276;2022-08-05T08:07:52;25.50;99.90
12315;DHT22;23886;46.614;14.276;2022-08-05T08:10:21;25.50;99.90
12315;DHT22;23886;46.614;14.276;2022-08-05T08:12:48;25.60;99.90
12315;DHT22;23886;46.614;14.276;2022-08-05T08:15:16;25.60;99.90
12315;DHT22;23886;46.614;14.276;2022-08-05T08:17:43;25.60;99.90
12315;DHT22;23886;46.614;14.276;2022-08-05T08:20:11;25.70;99.90
12315;DHT22;23886;46.614;14.276;2022-08-05T08:22:38;25.80;99.90
12315;DHT22;23886;46.614;14.276;2022-08-05T08:25:06;26.00;99.90
12315;DHT22;23886;46.614;14.276;2022-08-05T08:27:35;26.20;99.90
12315;DHT22;23886;46.614;14.276;2022-08-05T08:30:02;26.10;99.90
12315;DHT22;23886;46.614;14.276;2022-08-05T08:32:32;26.20;99.90
12315;DHT22;23886;46.614;14.276;2022-08-05T08:35:00;26.40;99.90
12315;DHT22;23886;46.614;14.276;2022-08-05T08:37:28;26.30;99.90
12315;DHT22;23886;46.614;14.276;2022-08-05T08:39:55;26.40;99.90
12315;DHT22;23886;46.614;14.276;2022-08-05T08:42:22;26.50;99.90
12315;DHT22;23886;46.614;14.276;2022-08-05T08:44:52;26.50;99.90
12315;DHT22;23886;46.614;14.276;2022-08-05T08:47:22;26.60;99.90
12315;DHT22;23886;46.614;14.276;2022-08-05T08:49:51;26.90;99.90
12315;DHT22;23886;46.614;14.276;2022-08-05T08:52:23;26.90;99.30
12315;DHT22;23886;46.614;14.276;2022-08-05T08:54:51;27.10;99.70
12315;DHT22;23886;46.614;14.276;2022-08-05T08:57:18;27.00;99.30
12315;DHT22;23886;46.614;14.276;2022-08-05T08:59:46;27.20;99.90
12315;DHT22;23886;46.614;14.276;2022-08-05T09:02:16;27.30;99.10
12315;DHT22;23886;46.614;14.276;2022-08-05T09:04:44;27.40;99.50
12315;DHT22;23886;46.614;14.276;2022-08-05T09:07:12;27.50;99.50
12315;DHT22;23886;46.614;14.276;2022-08-05T09:09:39;27.60;99.70
12315;DHT22;23886;46.614;14.276;2022-08-05T09:12:08;27.80;99.10
12315;DHT22;23886;46.614;14.276;2022-08-05T09:14:35;28.00;99.90
12315;DHT22;23886;46.614;14.276;2022-08-05T09:17:04;28.20;98.20
12315;DHT22;23886;46.614;14.276;2022-08-05T09:19:33;28.10;97.30
12315;DHT22;23886;46.614;14.276;2022-08-05T09:22:00;28.20;97.20
12315;DHT22;23886;46.614;14.276;2022-08-05T09:24:27;28.20;96.50
12315;DHT22;23886;46.614;14.276;2022-08-05T09:26:57;28.20;97.30
12315;DHT22;23886;46.614;14.276;2022-08-05T09:29:37;28.50;97.50
12315;DHT22;23886;46.614;14.276;2022-08-05T09:32:05;28.80;96.50
12315;DHT22;23886;46.614;14.276;2022-08-05T09:34:50;28.80;94.90
12315;DHT22;23886;46.614;14.276;2022-08-05T09:37:18;28.90;95.00
12315;DHT22;23886;46.614;14.276;2022-08-05T09:39:46;29.00;94.00
12315;DHT22;23886;46.614;14.276;2022-08-05T09:42:14;29.10;94.40
12315;DHT22;23886;46.614;14.276;2022-08-05T09:44:44;29.30;94.40
12315;DHT22;23886;46.614;14.276;2022-08-05T09:47:13;29.50;93.00
12315;DHT22;23886;46.614;14.276;2022-08-05T09:49:42;29.40;93.20
12315;DHT22;23886;46.614;14.276;2022-08-05T09:52:22;29.50;93.40
12315;DHT22;23886;46.614;14.276;2022-08-05T09:54:58;29.60;93.50
12315;DHT22;23886;46.614;14.276;2022-08-05T09:57:37;29.80;94.30
12315;DHT22;23886;46.614;14.276;2022-08-05T10:00:08;29.90;93.50
12315;DHT22;23886;46.614;14.276;2022-08-05T10:02:39;30.00;92.20
12315;DHT22;23886;46.614;14.276;2022-08-05T10:05:08;30.10;92.80
12315;DHT22;23886;46.614;14.276;2022-08-05T10:07:46;30.20;93.00
12315;DHT22;23886;46.614;14.276;2022-08-05T10:10:13;30.30;92.10
12315;DHT22;23886;46.614;14.276;2022-08-05T10:12:42;30.30;92.20
12315;DHT22;23886;46.614;14.276;2022-08-05T10:15:14;30.30;92.80
12315;DHT22;23886;46.614;14.276;2022-08-05T10:17:41;30.30;91.70
12315;DHT22;23886;46.614;14.276;2022-08-05T10:20:08;30.40;92.10
12315;DHT22;23886;46.614;14.276;2022-08-05T10:22:38;30.40;92.60
12315;DHT22;23886;46.614;14.276;2022-08-05T10:25:07;30.50;92.60
12315;DHT22;23886;46.614;14.276;2022-08-05T10:27:35;30.60;92.10
12315;DHT22;23886;46.614;14.276;2022-08-05T10:30:04;30.50;91.60
12315;DHT22;23886;46.614;14.276;2022-08-05T10:32:32;30.70;91.80
12315;DHT22;23886;46.614;14.276;2022-08-05T10:34:59;30.80;92.30
12315;DHT22;23886;46.614;14.276;2022-08-05T10:37:27;31.10;91.10
12315;DHT22;23886;46.614;14.276;2022-08-05T10:39:57;31.00;91.50
12315;DHT22;23886;46.614;14.276;2022-08-05T10:42:28;31.10;91.20
12315;DHT22;23886;46.614;14.276;2022-08-05T10:44:56;31.30;91.10
12315;DHT22;23886;46.614;14.276;2022-08-05T10:47:30;31.40;90.70
12315;DHT22;23886;46.614;14.276;2022-08-05T10:50:04;31.80;91.20
12315;DHT22;23886;46.614;14.276;2022-08-05T10:52:38;32.00;89.60
12315;DHT22;23886;46.614;14.276;2022-08-05T10:55:08;32.20;89.60
12315;DHT22;23886;46.614;14.276;2022-08-05T10:57:37;32.40;88.30
12315;DHT22;23886;46.614;14.276;2022-08-05T11:00:11;32.40;88.60
12315;DHT22;23886;46.614;14.276;2022-08-05T11:03:08;32.30;88.50
12315;DHT22;23886;46.614;14.276;2022-08-05T11:05:36;32.20;90.10
12315;DHT22;23886;46.614;14.276;2022-08-05T11:08:05;32.30;89.20
12315;DHT22;23886;46.614;14.276;2022-08-05T11:10:34;32.30;87.30
12315;DHT22;23886;46.614;14.276;2022-08-05T11:13:04;32.50;88.10
12315;DHT22;23886;46.614;14.276;2022-08-05T11:15:34;32.50;89.20
12315;DHT22;23886;46.614;14.276;2022-08-05T11:18:08;32.80;89.40
12315;DHT22;23886;46.614;14.276;2022-08-05T11:20:48;32.80;90.10
12315;DHT22;23886;46.614;14.276;2022-08-05T11:23:41;32.90;88.10
12315;DHT22;23886;46.614;14.276;2022-08-05T11:26:10;33.00;84.50
12315;DHT22;23886;46.614;14.276;2022-08-05T11:28:44;33.00;86.40
12315;DHT22;23886;46.614;14.276;2022-08-05T11:31:27;32.90;86.30
12315;DHT22;23886;46.614;14.276;2022-08-05T11:34:00;32.90;83.80
12315;DHT22;23886;46.614;14.276;2022-08-05T11:36:48;33.20;81.80
12315;DHT22;23886;46.614;14.276;2022-08-05T11:39:46;33.10;81.00
12315;DHT22;23886;46.614;14.276;2022-08-05T11:42:15;33.30;83.90
12315;DHT22;23886;46.614;14.276;2022-08-05T11:44:45;33.60;81.70
12315;DHT22;23886;46.614;14.276;2022-08-05T11:47:12;33.90;79.40
12315;DHT22;23886;46.614;14.276;2022-08-05T11:49:40;33.90;79.40
12315;DHT22;23886;46.614;14.276;2022-08-05T11:52:07;34.20;80.80
12315;DHT22;23886;46.614;14.276;2022-08-05T11:54:35;34.40;79.20
12315;DHT22;23886;46.614;14.276;2022-08-05T11:57:04;34.70;78.80
12315;DHT22;23886;46.614;14.276;2022-08-05T11:59:32;35.30;76.60
12315;DHT22;23886;46.614;14.276;2022-08-05T12:02:02;35.60;74.40
12315;DHT22;23886;46.614;14.276;2022-08-05T12:04:37;36.20;74.50
12315;DHT22;23886;46.614;14.276;2022-08-05T12:07:06;36.70;75.40
12315;DHT22;23886;46.614;14.276;2022-08-05T12:09:36;36.90;73.80
12315;DHT22;23886;46.614;14.276;2022-08-05T12:12:04;37.50;73.10
12315;DHT22;23886;46.614;14.276;2022-08-05T12:14:36;36.90;70.80
12315;DHT22;23886;46.614;14.276;2022-08-05T12:17:08;37.70;70.70
12315;DHT22;23886;46.614;14.276;2022-08-05T12:19:42;38.30;70.70
12315;DHT22;23886;46.614;14.276;2022-08-05T12:22:09;38.50;70.50
12315;DHT22;23886;46.614;14.276;2022-08-05T12:24:42;38.70;68.70
12315;DHT22;23886;46.614;14.276;2022-08-05T12:27:09;39.10;68.40
12315;DHT22;23886;46.614;14.276;2022-08-05T12:29:36;38.70;65.10
12315;DHT22;23886;46.614;14.276;2022-08-05T12:32:04;39.30;66.30
12315;DHT22;23886;46.614;14.276;2022-08-05T12:34:35;39.20;65.10
12315;DHT22;23886;46.614;14.276;2022-08-05T12:37:05;39.40;66.60
12315;DHT22;23886;46.614;14.276;2022-08-05T12:39:36;40.20;62.90
12315;DHT22;23886;46.614;14.276;2022-08-05T12:42:10;40.70;60.50
12315;DHT22;23886;46.614;14.276;2022-08-05T12:44:38;40.90;59.30
12315;DHT22;23886;46.614;14.276;2022-08-05T12:47:06;40.60;60.60
12315;DHT22;23886;46.614;14.276;2022-08-05T12:49:45;40.80;59.10
12315;DHT22;23886;46.614;14.276;2022-08-05T12:52:14;41.40;58.30
12315;DHT22;23886;46.614;14.276;2022-08-05T12:54:43;41.70;57.90
12315;DHT22;23886;46.614;14.276;2022-08-05T12:57:11;41.50;58.40
12315;DHT22;23886;46.614;14.276;2022-08-05T12:59:46;40.40;59.40
12315;DHT22;23886;46.614;14.276;2022-08-05T13:02:18;40.30;59.60
12315;DHT22;23886;46.614;14.276;2022-08-05T13:04:48;40.90;59.60
12315;DHT22;23886;46.614;14.276;2022-08-05T13:07:17;40.40;58.60
12315;DHT22;23886;46.614;14.276;2022-08-05T13:09:48;40.20;57.20
12315;DHT22;23886;46.614;14.276;2022-08-05T13:12:17;40.20;57.90
12315;DHT22;23886;46.614;14.276;2022-08-05T13:14:45;40.40;58.70
12315;DHT22;23886;46.614;14.276;2022-08-05T13:17:17;41.60;57.40
12315;DHT22;23886;46.614;14.276;2022-08-05T13:20:02;42.50;55.60
12315;DHT22;23886;46.614;14.276;2022-08-05T13:22:30;43.20;54.50
12315;DHT22;23886;46.614;14.276;2022-08-05T13:24:58;42.50;54.70
12315;DHT22;23886;46.614;14.276;2022-08-05T13:27:26;43.30;54.90
12315;DHT22;23886;46.614;14.276;2022-08-05T13:29:53;43.70;54.10
12315;DHT22;23886;46.614;14.276;2022-08-05T13:32:20;43.50;54.40
12315;DHT22;23886;46.614;14.276;2022-08-05T13:34:48;43.40;55.20
12315;DHT22;23886;46.614;14.276;2022-08-05T13:37:17;43.20;54.70
12315;DHT22;23886;46.614;14.276;2022-08-05T13:39:45;44.10;52.00
12315;DHT22;23886;46.614;14.276;2022-08-05T13:42:12;43.20;55.00
12315;DHT22;23886;46.614;14.276;2022-08-05T13:44:39;44.60;53.60
12315;DHT22;23886;46.614;14.276;2022-08-05T13:47:06;43.80;52.00
12315;DHT22;23886;46.614;14.276;2022-08-05T13:49:33;43.10;54.80
12315;DHT22;23886;46.614;14.276;2022-08-05T13:52:09;42.50;52.90
12315;DHT22;23886;46.614;14.276;2022-08-05T13:54:37;43.30;54.20
12315;DHT22;23886;46.614;14.276;2022-08-05T13:57:05;43.20;54.30
12315;DHT22;23886;46.614;14.276;2022-08-05T13:59:32;44.60;52.20
12315;DHT22;23886;46.614;14.276;2022-08-05T14:02:00;44.10;52.00
12315;DHT22;23886;46.614;14.276;2022-08-05T14:04:29;44.20;52.50
12315;DHT22;23886;46.614;14.276;2022-08-05T14:07:14;44.90;52.00
12315;DHT22;23886;46.614;14.276;2022-08-05T14:09:42;43.80;51.80
12315;DHT22;23886;46.614;14.276;2022-08-05T14:12:09;43.70;52.90
12315;DHT22;23886;46.614;14.276;2022-08-05T14:14:36;44.70;52.90
12315;DHT22;23886;46.614;14.276;2022-08-05T14:17:03;45.00;52.30
12315;DHT22;23886;46.614;14.276;2022-08-05T14:19:31;44.30;50.80
12315;DHT22;23886;46.614;14.276;2022-08-05T14:21:58;44.00;51.10
12315;DHT22;23886;46.614;14.276;2022-08-05T14:24:25;43.40;51.50
12315;DHT22;23886;46.614;14.276;2022-08-05T14:26:53;43.70;51.90
12315;DHT22;23886;46.614;14.276;2022-08-05T14:29:20;43.50;52.20
12315;DHT22;23886;46.614;14.276;2022-08-05T14:31:47;43.10;52.20
12315;DHT22;23886;46.614;14.276;2022-08-05T14:34:14;43.10;52.10
12315;DHT22;23886;46.614;14.276;2022-08-05T14:36:42;44.00;51.90
12315;DHT22;23886;46.614;14.276;2022-08-05T14:39:09;43.90;50.60
12315;DHT22;23886;46.614;14.276;2022-08-05T14:41:36;44.50;49.80
12315;DHT22;23886;46.614;14.276;2022-08-05T14:44:04;45.10;50.10
12315;DHT22;23886;46.614;14.276;2022-08-05T14:46:33;45.50;48.10
12315;DHT22;23886;46.614;14.276;2022-08-05T14:49:01;45.20;49.20
12315;DHT22;23886;46.614;14.276;2022-08-05T14:51:29;46.40;48.20
12315;DHT22;23886;46.614;14.276;2022-08-05T14:53:56;45.50;47.10
12315;DHT22;23886;46.614;14.276;2022-08-05T14:56:23;42.20;50.80
12315;DHT22;23886;46.614;14.276;2022-08-05T14:58:50;38.10;56.50
12315;DHT22;23886;46.614;14.276;2022-08-05T15:01:19;35.30;62.60
12315;DHT22;23886;46.614;14.276;2022-08-05T15:03:46;33.70;65.50
12315;DHT22;23886;46.614;14.276;2022-08-05T15:06:13;32.50;67.60
12315;DHT22;23886;46.614;14.276;2022-08-05T15:08:40;31.40;71.20
12315;DHT22;23886;46.614;14.276;2022-08-05T15:11:07;31.10;72.10
12315;DHT22;23886;46.614;14.276;2022-08-05T15:13:34;30.30;73.60
12315;DHT22;23886;46.614;14.276;2022-08-05T15:16:02;29.90;75.70
12315;DHT22;23886;46.614;14.276;2022-08-05T15:18:30;29.90;76.40
12315;DHT22;23886;46.614;14.276;2022-08-05T15:20:58;29.80;76.30
12315;DHT22;23886;46.614;14.276;2022-08-05T15:23:26;29.60;76.80
12315;DHT22;23886;46.614;14.276;2022-08-05T15:25:53;29.60;77.10
12315;DHT22;23886;46.614;14.276;2022-08-05T15:28:20;29.40;75.90